Time;durP1;ratioP1;P1;durP2;ratioP2;P2;SDS_P1;SDS_P2;PMS_P1;PMS_P2;Temp;Humidity;BMP_temperature;BMP_pressure;BME280_temperature;BME280_humidity;BME280_pressure;Samples;Min_cycle;Max_cycle;Signal;HPM_P1;HPM_P2
2023/10/24 00:00:59;;;;;;;5.60;2.53;;;;;;;15.06;100.00;98786.13;5040666;28;20046;-94
2023/10/24 00:03:25;;;;;;;13.73;2.53;;;;;;;15.55;100.00;98859.78;5040513;28;20037;-93
2023/10/24 00:05:51;;;;;;;8.80;2.85;;;;;;;15.42;100.00;98831.81;5040240;28;20133;-94
2023/10/24 00:08:19;;;;;;;5.65;2.72;;;;;;;15.36;100.00;98854.38;5041163;28;20111;-93
2023/10/24 00:10:45;;;;;;;12.50;2.75;;;;;;;15.15;100.00;98791.06;5040437;28;20510;-92
2023/10/24 00:13:12;;;;;;;9.75;3.03;;;;;;;15.10;100.00;98769.00;5043453;28;20046;-94
2023/10/24 00:15:37;;;;;;;6.13;2.45;;;;;;;15.29;100.00;98807.38;5039998;28;20494;-92
2023/10/24 00:18:04;;;;;;;7.82;2.50;;;;;;;15.19;100.00;98793.53;5042012;28;20091;-93
2023/10/24 00:20:30;;;;;;;7.90;2.20;;;;;;;15.04;100.00;98782.66;5041541;28;20125;-94
2023/10/24 00:22:56;;;;;;;7.50;2.65;;;;;;;14.90;100.00;98769.91;5040922;28;20065;-95
2023/10/24 00:25:23;;;;;;;7.45;2.55;;;;;;;14.76;100.00;98766.00;5041333;28;20507;-92
2023/10/24 00:27:49;;;;;;;8.80;2.63;;;;;;;14.68;100.00;98792.25;5040746;28;20084;-94
2023/10/24 00:30:15;;;;;;;6.78;2.67;;;;;;;15.00;100.00;98844.38;5039423;28;20037;-93
2023/10/24 00:32:41;;;;;;;9.77;3.08;;;;;;;14.85;100.00;98782.59;5056210;28;20037;-95
2023/10/24 00:35:07;;;;;;;10.80;2.47;;;;;;;15.18;100.00;98807.88;5036916;28;20049;-93
2023/10/24 00:37:33;;;;;;;10.88;2.45;;;;;;;15.38;100.00;98817.69;5070748;28;20052;-93
2023/10/24 00:39:59;;;;;;;6.47;2.20;;;;;;;15.13;100.00;98764.34;5040365;28;20046;-92
2023/10/24 00:42:26;;;;;;;10.50;3.67;;;;;;;15.61;100.00;98827.34;5039180;28;20042;-93
2023/10/24 00:44:52;;;;;;;8.57;2.70;;;;;;;15.18;100.00;98754.31;5038159;28;20483;-95
2023/10/24 00:47:18;;;;;;;7.38;2.83;;;;;;;15.59;100.00;98798.84;5054351;28;20038;-95
2023/10/24 00:49:45;;;;;;;6.45;2.13;;;;;;;15.53;100.00;98780.41;5039032;28;20037;-93
2023/10/24 00:52:10;;;;;;;7.15;2.30;;;;;;;15.91;100.00;98825.97;5038330;28;20096;-95
2023/10/24 00:54:36;;;;;;;6.63;2.20;;;;;;;15.85;100.00;98802.13;5040673;28;20045;-94
2023/10/24 00:57:03;;;;;;;6.20;2.28;;;;;;;16.07;100.00;98824.31;5040628;28;20061;-94
2023/10/24 00:59:31;;;;;;;4.28;2.20;;;;;;;15.93;100.00;98781.19;5040374;28;20041;-92
2023/10/24 01:01:58;;;;;;;14.65;2.75;;;;;;;15.63;100.00;98754.00;5038324;28;20046;-92
2023/10/24 01:04:24;;;;;;;10.27;3.65;;;;;;;15.96;100.00;98802.47;5041655;28;20037;-94
2023/10/24 01:06:50;;;;;;;5.07;2.38;;;;;;;15.98;100.00;98771.09;5040407;28;20084;-93
2023/10/24 01:09:16;;;;;;;6.70;2.78;;;;;;;16.11;100.00;98779.41;5041101;28;20038;-94
2023/10/24 01:11:42;;;;;;;6.30;2.65;;;;;;;15.80;100.00;98744.25;5041590;28;20042;-94
2023/10/24 01:14:08;;;;;;;9.13;2.95;;;;;;;15.81;100.00;98775.50;5040665;28;20033;-95
2023/10/24 01:16:41;;;;;;;5.63;2.42;;;;;;;15.57;100.00;98723.00;5062644;28;20038;-94
2023/10/24 01:19:07;;;;;;;19.50;2.90;;;;;;;16.13;100.00;98791.78;5040032;28;20438;-95
2023/10/24 01:21:33;;;;;;;6.93;2.15;;;;;;;15.83;100.00;98778.09;5040166;28;20049;-94
2023/10/24 01:24:00;;;;;;;4.30;2.05;;;;;;;15.63;100.00;98760.25;5040065;28;20049;-93
2023/10/24 01:26:27;;;;;;;5.60;1.92;;;;;;;15.53;100.00;98724.13;5037316;28;20081;-95
2023/10/24 01:28:53;;;;;;;9.25;2.53;;;;;;;15.75;100.00;98769.56;5038429;28;20041;-93
2023/10/24 01:31:19;;;;;;;4.28;2.25;;;;;;;15.45;100.00;98735.19;5038346;28;20111;-93
2023/10/24 01:33:45;;;;;;;7.95;2.35;;;;;;;15.55;100.00;98730.28;5039442;28;20044;-94
2023/10/24 01:36:10;;;;;;;6.18;2.10;;;;;;;15.57;100.00;98739.09;5040587;28;20548;-93
2023/10/24 01:38:36;;;;;;;7.25;3.05;;;;;;;15.43;100.00;98709.41;5040070;28;20041;-94
2023/10/24 01:41:04;;;;;;;5.20;2.22;;;;;;;15.35;100.00;98702.63;5037967;28;20057;-94
2023/10/24 01:43:30;;;;;;;4.00;1.73;;;;;;;15.82;100.00;98779.88;5042974;28;20042;-93
2023/10/24 01:45:55;;;;;;;5.85;2.03;;;;;;;15.48;100.00;98729.66;5039315;28;20071;-93
2023/10/24 01:48:23;;;;;;;6.70;2.35;;;;;;;15.49;100.00;98725.19;5040082;28;20060;-94
2023/10/24 01:50:49;;;;;;;8.68;2.55;;;;;;;15.43;100.00;98717.44;5039894;28;20064;-94
2023/10/24 01:53:14;;;;;;;6.97;2.00;;;;;;;15.53;100.00;98740.19;5038806;28;20053;-95
2023/10/24 01:55:40;;;;;;;3.30;1.75;;;;;;;15.12;100.00;98697.47;5041262;28;20582;-94
2023/10/24 01:58:08;;;;;;;5.70;2.38;;;;;;;15.25;100.00;98722.75;5039776;28;20053;-92
2023/10/24 02:00:33;;;;;;;5.68;2.33;;;;;;;15.44;100.00;98744.19;5039151;28;20029;-94
2023/10/24 02:02:59;;;;;;;5.72;2.20;;;;;;;15.11;100.00;98685.88;5056200;28;20053;-94
2023/10/24 02:05:25;;;;;;;8.23;2.55;;;;;;;15.47;100.00;98736.00;5036258;28;20050;-93
2023/10/24 02:07:51;;;;;;;7.47;2.17;;;;;;;15.25;100.00;98727.25;5032799;28;20046;-94
2023/10/24 02:10:17;;;;;;;6.25;2.15;;;;;;;15.51;100.00;98752.81;5039694;28;20064;-92
2023/10/24 02:12:43;;;;;;;7.07;2.05;;;;;;;15.07;100.00;98678.06;5040202;28;20041;-94
2023/10/24 02:15:11;;;;;;;11.45;2.60;;;;;;;15.17;100.00;98671.31;5056079;28;20068;-93
2023/10/24 02:17:37;;;;;;;8.27;2.15;;;;;;;15.18;100.00;98659.69;5055668;28;20541;-93
2023/10/24 02:20:04;;;;;;;11.73;2.83;;;;;;;15.75;100.00;98740.91;5038600;28;20041;-92
2023/10/24 02:22:31;;;;;;;5.13;2.38;;;;;;;15.79;100.00;98721.06;5038830;28;20103;-93
2023/10/24 02:24:57;;;;;;;7.40;2.42;;;;;;;15.80;100.00;98690.63;5053392;28;20120;-95
2023/10/24 02:27:23;;;;;;;4.97;2.10;;;;;;;16.04;100.00;98710.94;5055432;28;20129;-94
2023/10/24 02:29:49;;;;;;;7.90;2.03;;;;;;;15.96;100.00;98704.16;5038908;28;20801;-94
2023/10/24 02:32:17;;;;;;;7.38;2.25;;;;;;;16.07;100.00;98706.28;5037460;28;20053;-94
2023/10/24 02:34:46;;;;;;;6.78;2.33;;;;;;;15.78;100.00;98659.47;5038367;28;20037;-93
2023/10/24 02:37:12;;;;;;;8.43;2.13;;;;;;;16.32;100.00;98738.09;5038686;28;20037;-94
2023/10/24 02:39:38;;;;;;;7.47;2.65;;;;;;;16.23;100.00;98722.47;5039441;28;20102;-94
2023/10/24 02:42:04;;;;;;;5.25;1.92;;;;;;;16.06;100.00;98690.25;5068776;28;20165;-95
2023/10/24 02:44:30;;;;;;;7.07;2.38;;;;;;;16.36;100.00;98728.06;5036652;28;20056;-93
2023/10/24 02:46:56;;;;;;;6.10;2.15;;;;;;;16.12;100.00;98681.91;5038801;28;20038;-94
2023/10/24 02:49:23;;;;;;;10.95;2.55;;;;;;;16.23;100.00;98706.38;5038499;28;20044;-94
2023/10/24 02:51:49;;;;;;;6.18;2.03;;;;;;;16.32;100.00;98711.25;5038686;28;20517;-90
2023/10/24 02:54:15;;;;;;;6.38;2.20;;;;;;;16.41;100.00;98715.28;5072330;28;20490;-94
2023/10/24 02:56:41;;;;;;;9.95;2.53;;;;;;;16.01;100.00;98647.59;5042237;28;20038;-94
2023/10/24 02:59:07;;;;;;;6.82;1.65;;;;;;;15.95;100.00;98654.13;5056196;28;20042;-93
2023/10/24 03:01:33;;;;;;;8.35;2.75;;;;;;;16.07;100.00;98643.69;5042821;28;20041;-93
2023/10/24 03:03:59;;;;;;;11.07;2.20;;;;;;;16.13;100.00;98633.53;5044964;28;20045;-96
2023/10/24 03:06:26;;;;;;;13.35;2.83;;;;;;;16.06;100.00;98625.88;5041910;28;20056;-94
2023/10/24 03:08:52;;;;;;;5.55;2.50;;;;;;;16.33;100.00;98653.97;5042041;28;20041;-94
2023/10/24 03:11:22;;;;;;;13.35;2.40;;;;;;;16.43;100.00;98675.81;5041940;28;20049;-93
2023/10/24 03:13:48;;;;;;;6.38;2.15;;;;;;;16.44;100.00;98674.88;5042735;28;20067;-94
2023/10/24 03:16:14;;;;;;;5.75;1.90;;;;;;;16.51;100.00;98684.34;5042595;28;20052;-94
2023/10/24 03:18:40;;;;;;;5.15;2.15;;;;;;;16.51;100.00;98692.38;5042901;28;20041;-93
2023/10/24 03:21:07;;;;;;;10.43;2.25;;;;;;;16.37;100.00;98655.56;5041980;28;20372;-94
2023/10/24 03:23:35;;;;;;;9.38;2.20;;;;;;;16.35;100.00;98669.97;5041002;28;20057;-93
2023/10/24 03:26:04;;;;;;;8.90;2.33;;;;;;;16.40;100.00;98663.44;5042525;28;20046;-93
2023/10/24 03:28:30;;;;;;;5.00;2.45;;;;;;;16.36;100.00;98643.06;5042132;28;20107;-94
2023/10/24 03:31:02;;;;;;;7.53;2.30;;;;;;;16.28;100.00;98661.38;5068244;28;20041;-94
2023/10/24 03:33:28;;;;;;;3.97;1.52;;;;;;;15.73;100.00;98565.88;5043287;28;20041;-93
2023/10/24 03:35:54;;;;;;;8.25;2.35;;;;;;;15.93;100.00;98612.25;5040612;28;20053;-92
2023/10/24 03:38:20;;;;;;;11.95;2.60;;;;;;;15.43;100.00;98562.03;5041197;28;20038;-94
2023/10/24 03:40:49;;;;;;;8.10;1.90;;;;;;;15.68;100.00;98594.69;5043936;28;20084;-94
2023/10/24 03:43:15;;;;;;;8.35;2.15;;;;;;;15.96;100.00;98623.69;5056179;28;20049;-94
2023/10/24 03:45:40;;;;;;;8.05;2.45;;;;;;;15.60;100.00;98580.81;5042008;28;20400;-93
2023/10/24 03:48:09;;;;;;;7.45;2.20;;;;;;;15.93;100.00;98607.72;5038860;28;20042;-94
2023/10/24 03:50:36;;;;;;;10.40;2.10;;;;;;;15.72;100.00;98585.59;5038740;28;20410;-92
2023/10/24 03:53:02;;;;;;;6.35;1.92;;;;;;;15.78;100.00;98581.72;5042539;28;20136;-94
2023/10/24 03:55:27;;;;;;;11.70;2.17;;;;;;;16.11;100.00;98614.00;5041850;28;20060;-94
2023/10/24 03:57:55;;;;;;;6.53;1.65;;;;;;;16.25;100.00;98615.94;5042171;28;20052;-94
2023/10/24 04:00:21;;;;;;;5.15;1.98;;;;;;;15.76;100.00;98530.84;5041798;28;20414;-91
2023/10/24 04:02:50;;;;;;;7.43;2.00;;;;;;;16.14;100.00;98603.09;5041160;28;20037;-92
2023/10/24 04:05:16;;;;;;;9.68;2.58;;;;;;;15.88;100.00;98571.41;5040714;28;20049;-93
2023/10/24 04:07:42;;;;;;;9.43;2.20;;;;;;;16.14;100.00;98605.75;5041935;28;20076;-94
2023/10/24 04:10:09;;;;;;;8.48;2.33;;;;;;;16.10;100.00;98579.19;5040301;28;20064;-94
2023/10/24 04:12:34;;;;;;;8.25;2.15;;;;;;;16.08;100.00;98575.72;5042360;28;20041;-94
2023/10/24 04:15:03;;;;;;;7.60;1.77;;;;;;;16.16;100.00;98560.94;5041455;28;20411;-93
2023/10/24 04:17:29;;;;;;;9.40;2.28;;;;;;;15.85;100.00;98493.78;5042082;28;20217;-94
2023/10/24 04:19:55;;;;;;;9.93;2.28;;;;;;;15.92;100.00;98500.56;5041347;28;20042;-93
2023/10/24 04:22:21;;;;;;;5.88;2.22;;;;;;;16.21;100.00;98549.97;5041641;28;20109;-93
2023/10/24 04:24:47;;;;;;;5.82;1.58;;;;;;;15.81;100.00;98496.63;5041075;28;20055;-93
2023/10/24 04:27:13;;;;;;;7.93;2.25;;;;;;;15.97;100.00;98546.78;5041067;28;20091;-96
2023/10/24 04:29:39;;;;;;;6.45;2.17;;;;;;;16.31;100.00;98566.41;5040864;28;20042;-94
2023/10/24 04:32:06;;;;;;;9.02;2.10;;;;;;;16.05;100.00;98493.59;5041006;28;20048;-95
2023/10/24 04:34:32;;;;;;;5.88;1.90;;;;;;;15.98;100.00;98470.72;5041492;28;20096;-95
2023/10/24 04:36:58;;;;;;;9.25;1.92;;;;;;;16.36;100.00;98510.72;5040997;28;20057;-94
2023/10/24 04:39:25;;;;;;;6.95;1.88;;;;;;;16.30;100.00;98474.34;5040497;28;20041;-93
2023/10/24 04:41:51;;;;;;;7.55;2.20;;;;;;;16.11;100.00;98447.66;5034362;28;20072;-93
2023/10/24 04:44:16;;;;;;;8.32;2.15;;;;;;;16.29;100.00;98455.66;5034649;28;20052;-94
2023/10/24 04:46:42;;;;;;;4.85;1.80;;;;;;;16.25;100.00;98443.34;5050113;28;20042;-94
2023/10/24 04:49:10;;;;;;;8.57;1.50;;;;;;;16.46;100.00;98485.09;5039374;28;20068;-93
2023/10/24 04:51:36;;;;;;;8.20;1.70;;;;;;;16.33;100.00;98441.09;5040291;28;20049;-94
2023/10/24 04:54:05;;;;;;;9.35;1.90;;;;;;;16.51;100.00;98450.81;5053028;28;20570;-93
2023/10/24 04:56:31;;;;;;;8.13;2.20;;;;;;;16.37;100.00;98432.81;5041184;28;20049;-93
2023/10/24 04:58:56;;;;;;;11.77;1.65;;;;;;;16.02;100.00;98378.41;5041285;28;20046;-94
2023/10/24 05:01:23;;;;;;;7.75;2.05;;;;;;;16.37;100.00;98446.22;5037207;28;20072;-96
2023/10/24 05:03:49;;;;;;;11.50;2.30;;;;;;;15.77;100.00;98355.66;5070477;28;20465;-95
2023/10/24 05:06:17;;;;;;;14.13;2.00;;;;;;;16.02;100.00;98397.19;5037055;28;20065;-95
2023/10/24 05:08:43;;;;;;;9.55;1.92;;;;;;;15.79;100.00;98391.28;5037170;28;20041;-94
2023/10/24 05:11:08;;;;;;;4.72;1.45;;;;;;;15.84;100.00;98407.13;5039542;28;20379;-94
2023/10/24 05:13:34;;;;;;;7.35;1.40;;;;;;;15.82;100.00;98393.78;5040077;28;20060;-95
2023/10/24 05:16:00;;;;;;;12.07;2.35;;;;;;;15.87;100.00;98412.31;5039760;28;20060;-93
2023/10/24 05:18:26;;;;;;;6.78;1.20;;;;;;;15.77;100.00;98387.81;5066552;28;20068;-93
2023/10/24 05:20:52;;;;;;;7.45;1.60;;;;;;;15.73;100.00;98372.00;5038797;28;20049;-93
2023/10/24 05:23:19;;;;;;;10.88;2.13;;;;;;;15.66;100.00;98333.91;5036422;28;20046;-94
2023/10/24 05:25:45;;;;;;;6.57;1.70;;;;;;;16.05;100.00;98390.78;5037833;28;20037;-93
2023/10/24 05:28:11;;;;;;;9.05;1.52;;;;;;;15.78;100.00;98352.00;5061903;28;20130;-94
2023/10/24 05:30:39;;;;;;;8.88;1.70;;;;;;;15.73;100.00;98347.88;5065544;28;20065;-93
2023/10/24 05:33:05;;;;;;;7.47;2.17;;;;;;;15.65;100.00;98367.00;5040492;28;20072;-94
2023/10/24 05:35:32;;;;;;;7.65;1.95;;;;;;;15.48;100.00;98349.13;5075088;28;20486;-94
2023/10/24 05:37:58;;;;;;;4.93;1.30;;;;;;;15.71;100.00;98381.91;5031447;28;20033;-92
2023/10/24 05:40:26;;;;;;;2.92;1.27;;;;;;;15.77;100.00;98382.47;5052754;28;20049;-92
2023/10/24 05:42:52;;;;;;;12.02;1.73;;;;;;;15.44;100.00;98344.94;5054330;28;20137;-93
2023/10/24 05:45:21;;;;;;;8.18;1.60;;;;;;;15.39;100.00;98358.53;5064833;28;20078;-94
2023/10/24 05:47:47;;;;;;;4.60;1.20;;;;;;;15.32;100.00;98343.75;5020641;28;20495;-93
2023/10/24 05:50:13;;;;;;;7.63;1.73;;;;;;;15.28;100.00;98368.97;5024619;28;20044;-94
2023/10/24 05:52:39;;;;;;;10.90;1.52;;;;;;;14.90;100.00;98337.03;5037597;28;20052;-93
2023/10/24 05:55:06;;;;;;;8.73;1.92;;;;;;;15.33;100.00;98388.38;5037259;28;20068;-93
2023/10/24 05:57:35;;;;;;;6.93;1.85;;;;;;;14.95;100.00;98326.94;5036753;28;20048;-93
2023/10/24 06:00:02;;;;;;;8.55;1.73;;;;;;;14.95;100.00;98356.38;5038219;28;20042;-94
2023/10/24 06:02:27;;;;;;;10.38;2.35;;;;;;;14.78;100.00;98338.50;5035354;28;20059;-94
2023/10/24 06:04:53;;;;;;;10.25;1.60;;;;;;;15.09;100.00;98368.19;5034699;28;20037;-94
2023/10/24 06:07:19;;;;;;;7.45;1.92;;;;;;;15.39;100.00;98397.88;5051369;28;20120;-93
2023/10/24 06:09:45;;;;;;;5.20;1.45;;;;;;;15.07;100.00;98340.63;5035330;28;20049;-93
2023/10/24 06:12:11;;;;;;;10.75;1.50;;;;;;;15.49;100.00;98404.47;5035476;28;20049;-93
2023/10/24 06:14:38;;;;;;;5.47;1.48;;;;;;;15.35;100.00;98356.09;5035414;28;20048;-91
2023/10/24 06:17:04;;;;;;;14.05;1.80;;;;;;;15.45;100.00;98377.94;5034075;28;20045;-94
2023/10/24 06:19:31;;;;;;;5.68;1.73;;;;;;;15.65;100.00;98393.81;5034886;28;20048;-92
2023/10/24 06:21:57;;;;;;;5.70;1.48;;;;;;;15.53;100.00;98339.06;5034610;28;20099;-93
2023/10/24 06:24:23;;;;;;;9.57;1.80;;;;;;;16.11;100.00;98418.16;5034542;28;20041;-94
2023/10/24 06:26:49;;;;;;;6.25;1.67;;;;;;;16.06;100.00;98393.41;5034424;28;20064;-94
2023/10/24 06:29:15;;;;;;;14.05;1.92;;;;;;;16.22;100.00;98399.66;5034378;28;20487;-92
2023/10/24 06:31:42;;;;;;;16.58;1.77;;;;;;;16.15;100.00;98398.25;5034706;28;20073;-93
2023/10/24 06:34:08;;;;;;;9.38;1.60;;;;;;;16.29;100.00;98378.69;5033631;28;20034;-93
2023/10/24 06:36:35;;;;;;;10.88;3.10;;;;;;;16.12;100.00;98333.19;5034536;28;20517;-93
2023/10/24 06:39:03;;;;;;;7.40;2.50;;;;;;;16.47;100.00;98382.16;5034487;28;20395;-95
2023/10/24 06:41:29;;;;;;;7.65;3.10;;;;;;;16.35;100.00;98347.94;5032293;28;20064;-95
2023/10/24 06:43:55;;;;;;;11.20;2.65;;;;;;;16.59;100.00;98384.13;5063241;28;20495;-94
2023/10/24 06:46:22;;;;;;;11.35;2.83;;;;;;;16.58;100.00;98376.16;5025229;28;20037;-92
2023/10/24 06:48:50;;;;;;;17.05;4.53;;;;;;;16.55;100.00;98385.25;5037164;28;20037;-94
2023/10/24 06:51:16;;;;;;;9.93;2.63;;;;;;;16.61;100.00;98382.22;5034499;28;20053;-96
2023/10/24 06:53:42;;;;;;;9.27;2.28;;;;;;;16.68;100.00;98404.22;5034218;28;20491;-93
2023/10/24 06:56:08;;;;;;;10.55;2.20;;;;;;;16.84;100.00;98404.22;5035447;28;20087;-94
2023/10/24 06:58:34;;;;;;;8.65;2.40;;;;;;;16.67;100.00;98361.34;5035551;28;20041;-93
2023/10/24 07:01:00;;;;;;;7.32;1.75;;;;;;;16.70;100.00;98353.09;5030912;28;20054;-94
2023/10/24 07:03:26;;;;;;;7.93;1.77;;;;;;;17.02;100.00;98416.59;5033955;28;20034;-96
2023/10/24 07:05:54;;;;;;;12.32;2.53;;;;;;;17.29;100.00;98450.81;5034499;28;20137;-95
2023/10/24 07:08:21;;;;;;;9.48;1.77;;;;;;;17.25;100.00;98417.03;5034201;28;20048;-95
2023/10/24 07:10:48;;;;;;;6.25;1.50;;;;;;;17.03;100.00;98369.94;5032761;28;20100;-93
2023/10/24 07:13:14;;;;;;;6.60;1.52;;;;;;;17.41;100.00;98433.06;5030232;28;20073;-93
2023/10/24 07:15:40;;;;;;;11.73;2.00;;;;;;;17.11;100.00;98380.25;5023475;28;20065;-94
2023/10/24 07:18:06;;;;;;;12.25;2.33;;;;;;;17.52;100.00;98441.38;5036597;28;20083;-95
2023/10/24 07:20:35;;;;;;;11.02;1.95;;;;;;;17.56;100.00;98431.28;5037052;28;20055;-96
2023/10/24 07:23:03;;;;;;;9.18;1.80;;;;;;;17.56;100.00;98429.47;5037757;28;20041;-94
2023/10/24 07:25:29;;;;;;;9.10;1.45;;;;;;;17.64;100.00;98429.84;5035101;28;20092;-96
2023/10/24 07:27:56;;;;;;;6.50;1.50;;;;;;;17.70;100.00;98417.88;5032472;28;20038;-94
2023/10/24 07:30:23;;;;;;;8.80;1.48;;;;;;;17.62;100.00;98420.16;5038051;28;20072;-95
2023/10/24 07:32:49;;;;;;;5.80;1.52;;;;;;;17.85;100.00;98465.38;5036665;28;20487;-93
2023/10/24 07:35:16;;;;;;;6.88;1.50;;;;;;;18.04;100.00;98469.59;5070758;28;20097;-95
2023/10/24 07:37:42;;;;;;;5.65;1.38;;;;;;;17.62;100.00;98383.38;5053775;28;20091;-95
2023/10/24 07:40:12;;;;;;;11.23;1.40;;;;;;;17.90;100.00;98451.63;5038842;28;20050;-95
2023/10/24 07:42:38;;;;;;;13.70;1.88;;;;;;;17.92;100.00;98454.22;5038876;28;20053;-95
2023/10/24 07:45:05;;;;;;;5.72;1.48;;;;;;;18.10;100.00;98495.25;5039179;28;20058;-94
2023/10/24 07:47:31;;;;;;;8.32;1.63;;;;;;;17.96;100.00;98440.50;5039667;28;20041;-95
2023/10/24 07:49:59;;;;;;;12.13;1.73;;;;;;;18.41;100.00;98475.34;5038888;28;20038;-94
2023/10/24 07:52:25;;;;;;;9.48;1.50;;;;;;;18.27;100.00;98417.00;5040739;28;20041;-95
2023/10/24 07:54:51;;;;;;;18.88;2.67;;;;;;;18.36;100.00;98385.94;5042868;28;20077;-94
2023/10/24 07:57:18;;;;;;;10.85;1.63;;;;;;;18.89;100.00;98459.72;5038271;28;20049;-96
2023/10/24 07:59:44;;;;;;;8.45;1.58;;;;;;;18.78;100.00;98419.13;5021407;28;20561;-94
2023/10/24 08:02:10;;;;;;;9.10;1.60;;;;;;;18.76;100.00;98408.44;5020800;28;20050;-96
2023/10/24 08:04:36;;;;;;;9.13;1.70;;;;;;;19.03;100.00;98431.84;5031996;28;20049;-95
2023/10/24 08:07:03;;;;;;;9.70;1.83;;;;;;;18.80;100.00;98395.66;5042903;28;20050;-94
2023/10/24 08:09:29;;;;;;;16.23;1.85;;;;;;;19.03;100.00;98438.09;5042562;28;20037;-94
2023/10/24 08:11:55;;;;;;;6.72;1.50;;;;;;;18.76;100.00;98356.38;5043024;28;20065;-93
2023/10/24 08:14:22;;;;;;;11.98;1.67;;;;;;;19.08;100.00;98400.03;5052721;28;20049;-94
2023/10/24 08:16:48;;;;;;;7.38;1.58;;;;;;;18.73;100.00;98361.97;5042730;28;20038;-94
2023/10/24 08:19:14;;;;;;;10.25;1.92;;;;;;;18.75;100.00;98378.91;5042834;28;20061;-95
2023/10/24 08:21:40;;;;;;;9.32;1.67;;;;;;;18.76;100.00;98377.91;5042208;28;20067;-93
2023/10/24 08:24:06;;;;;;;4.43;1.95;;;;;;;18.94;100.00;98405.53;5055407;28;20045;-92
2023/10/24 08:26:32;;;;;;;9.95;1.73;;;;;;;19.43;100.00;98451.56;5041394;28;20490;-94
2023/10/24 08:28:58;;;;;;;8.57;1.60;;;;;;;19.31;100.00;98395.78;5042253;28;20053;-94
2023/10/24 08:31:27;;;;;;;5.82;1.20;;;;;;;19.28;100.00;98369.91;5041907;28;20041;-95
2023/10/24 08:33:53;;;;;;;14.50;2.60;;;;;;;19.69;100.00;98409.34;5042214;28;20041;-95
2023/10/24 08:36:19;;;;;;;8.18;1.90;;;;;;;19.60;100.00;98384.81;5041227;28;20060;-95
2023/10/24 08:38:45;;;;;;;7.45;1.80;;;;;;;19.81;100.00;98417.53;5040789;28;20071;-95
2023/10/24 08:41:11;;;;;;;7.95;1.58;;;;;;;19.89;100.00;98361.19;5040995;28;20072;-95
2023/10/24 08:43:38;;;;;;;9.07;1.88;;;;;;;20.14;100.00;98373.78;5041351;28;20038;-94
2023/10/24 08:46:05;;;;;;;9.98;1.77;;;;;;;20.06;100.00;98379.75;5040190;28;20472;-95
2023/10/24 08:48:34;;;;;;;12.90;2.22;;;;;;;19.92;100.00;98325.88;5041965;28;20052;-94
2023/10/24 08:51:00;;;;;;;8.02;1.33;;;;;;;20.57;100.00;98361.66;5040159;28;20509;-95
2023/10/24 08:53:26;;;;;;;8.68;1.45;;;;;;;20.71;96.68;98326.41;5039415;28;20051;-95
2023/10/24 08:55:53;;;;;;;7.25;1.30;;;;;;;20.66;95.15;98297.00;5041315;28;20037;-95
2023/10/24 08:58:20;;;;;;;8.57;1.55;;;;;;;20.71;91.16;98307.50;5040584;28;20037;-94
2023/10/24 09:00:47;;;;;;;11.63;1.75;;;;;;;20.97;94.82;98327.13;5040112;28;20554;-93
2023/10/24 09:03:15;;;;;;;10.02;1.58;;;;;;;20.90;93.13;98315.88;5035662;28;20099;-95
2023/10/24 09:05:44;;;;;;;6.78;1.42;;;;;;;20.76;89.47;98280.13;5072811;28;20045;-93
2023/10/24 09:08:10;;;;;;;;;;;;;;;21.21;85.15;98331.59;5038386;28;20076;-94
2023/10/24 09:10:36;;;;;;;13.38;1.50;;;;;;;20.58;82.59;98296.75;5042916;28;19921;-95
2023/10/24 09:13:04;;;;;;;7.30;1.30;;;;;;;20.97;83.67;98359.56;5042061;28;20155;-94
2023/10/24 09:15:33;;;;;;;6.00;1.67;;;;;;;20.90;83.41;98305.06;5043542;28;20069;-94
2023/10/24 09:18:02;;;;;;;13.02;1.90;;;;;;;20.72;81.91;98295.69;5037702;28;20113;-93
2023/10/24 09:20:30;;;;;;;9.48;2.20;;;;;;;20.70;85.57;98330.06;5039326;28;20133;-93
2023/10/24 09:23:03;;;;;;;11.95;2.25;;;;;;;21.25;87.56;98341.19;5040358;28;20053;-94
2023/10/24 09:25:29;;;;;;;9.65;1.65;;;;;;;21.30;84.16;98318.22;5035916;28;20137;-94
2023/10/24 09:28:16;;;;;;;14.43;1.75;;;;;;;21.15;86.22;98308.59;5040529;28;20037;-95
2023/10/24 09:30:43;;;;;;;12.40;2.08;;;;;;;21.10;84.30;98306.25;5042284;28;20498;-96
2023/10/24 09:33:09;;;;;;;14.57;1.77;;;;;;;20.81;85.26;98291.44;5041932;28;20100;-93
2023/10/24 09:35:36;;;;;;;18.08;2.28;;;;;;;20.87;88.50;98326.94;5042156;28;20052;-93
2023/10/24 09:38:05;;;;;;;18.65;2.55;;;;;;;20.88;88.22;98358.41;5042810;28;20042;-94
2023/10/24 09:40:36;;;;;;;18.45;2.28;;;;;;;20.79;88.98;98360.94;5044765;28;20103;-95
2023/10/24 09:43:10;;;;;;;9.90;1.90;;;;;;;20.59;88.03;98308.41;5042388;28;20041;-96
2023/10/24 09:45:39;;;;;;;10.85;1.52;;;;;;;20.79;89.64;98333.91;5040974;28;20045;-94
2023/10/24 09:48:08;;;;;;;17.55;1.92;;;;;;;21.05;90.85;98396.81;5074764;28;20038;-95
2023/10/24 09:50:36;;;;;;;12.10;1.95;;;;;;;20.76;90.41;98336.88;5066306;28;20529;-95
2023/10/24 09:53:05;;;;;;;16.55;2.42;;;;;;;20.89;89.68;98343.06;5043757;28;20049;-96
2023/10/24 09:55:31;;;;;;;18.48;2.58;;;;;;;21.05;89.46;98329.22;5058417;28;20053;-93
2023/10/24 09:57:59;;;;;;;16.95;2.63;;;;;;;20.91;91.05;98344.66;5040906;28;20068;-95
2023/10/24 10:00:26;;;;;;;12.50;1.85;;;;;;;20.95;91.67;98366.03;5038937;28;20050;-94
2023/10/24 10:02:56;;;;;;;14.48;1.80;;;;;;;20.86;93.55;98362.19;5030934;28;20053;-94
2023/10/24 10:05:23;;;;;;;13.63;1.60;;;;;;;20.69;93.27;98302.19;5042625;28;20042;-96
2023/10/24 10:07:51;;;;;;;14.88;2.67;;;;;;;21.32;92.83;98385.72;5041594;28;20040;-95
2023/10/24 10:10:19;;;;;;;17.17;2.42;;;;;;;21.30;92.61;98353.38;5027410;28;20046;-94
2023/10/24 10:12:47;;;;;;;14.13;4.35;;;;;;;21.12;91.37;98309.72;5024535;28;20056;-94
2023/10/24 10:15:27;;;;;;;14.52;2.25;;;;;;;21.08;91.91;98319.03;5027560;28;20112;-94
2023/10/24 10:18:10;;;;;;;10.50;2.20;;;;;;;21.15;92.38;98318.56;5033033;28;20037;-95
2023/10/24 10:20:48;;;;;;;11.85;1.80;;;;;;;21.20;92.07;98346.97;5042830;28;20053;-96
2023/10/24 10:23:36;;;;;;;13.63;2.90;;;;;;;21.25;93.08;98316.84;5043001;28;20045;-93
2023/10/24 10:26:09;;;;;;;12.75;2.08;;;;;;;21.44;93.84;98344.22;5038391;28;20042;-95
2023/10/24 10:28:54;;;;;;;11.43;2.17;;;;;;;20.96;92.63;98265.91;5034852;28;20046;-95
2023/10/24 10:31:37;;;;;;;17.63;2.15;;;;;;;21.65;90.43;98346.22;5038625;28;20049;-95
2023/10/24 10:34:03;;;;;;;8.52;2.47;;;;;;;21.45;92.14;98307.22;5064646;28;20068;-95
2023/10/24 10:36:30;;;;;;;10.07;1.75;;;;;;;21.44;91.17;98292.81;5042391;28;20075;-94
2023/10/24 10:39:00;;;;;;;15.05;2.25;;;;;;;21.28;93.42;98270.66;5033171;28;20041;-94
2023/10/24 10:41:38;;;;;;;15.07;1.92;;;;;;;21.41;94.59;98305.72;5072912;28;20041;-95
2023/10/24 10:44:34;;;;;;;13.77;2.22;;;;;;;21.63;95.36;98299.47;5066005;28;20117;-94
2023/10/24 10:47:01;;;;;;;11.77;1.80;;;;;;;21.39;95.09;98197.63;5042950;28;20049;-94
2023/10/24 10:49:38;;;;;;;13.35;2.50;;;;;;;21.77;93.97;98163.03;5042805;28;20045;-94
2023/10/24 10:52:13;;;;;;;21.83;3.10;;;;;;;21.76;94.74;98156.78;5042665;28;20053;-94
2023/10/24 10:54:46;;;;;;;18.48;2.38;;;;;;;22.28;91.93;98182.22;5042562;28;20038;-94
2023/10/24 10:57:21;;;;;;;11.25;2.05;;;;;;;22.34;90.98;98148.34;5041535;28;20065;-93
2023/10/24 10:59:57;;;;;;;13.25;2.35;;;;;;;22.74;89.82;98158.47;5041713;28;20044;-94
2023/10/24 11:02:46;;;;;;;14.45;2.00;;;;;;;22.86;89.23;98184.50;5043361;28;20042;-95
2023/10/24 11:05:49;;;;;;;9.85;2.22;;;;;;;22.89;88.09;98156.25;5042019;28;20124;-95
2023/10/24 11:08:20;;;;;;;15.43;2.92;;;;;;;23.15;89.30;98202.81;5023788;28;20058;-94
2023/10/24 11:11:00;;;;;;;15.35;2.25;;;;;;;22.92;88.47;98118.91;5033232;28;20049;-93
2023/10/24 11:13:49;;;;;;;21.50;2.58;;;;;;;23.03;88.90;98130.66;5045131;28;20061;-96
2023/10/24 11:16:18;;;;;;;21.75;2.80;;;;;;;22.59;88.56;98117.28;5046679;28;20042;-96
2023/10/24 11:18:45;;;;;;;14.57;2.08;;;;;;;22.52;89.15;98111.53;5025884;28;20050;-94
2023/10/24 11:21:12;;;;;;;15.98;2.63;;;;;;;22.46;90.83;98101.22;5029178;28;20499;-95
2023/10/24 11:23:42;;;;;;;11.13;2.22;;;;;;;22.55;90.41;98132.97;5027261;28;20046;-95
2023/10/24 11:26:09;;;;;;;10.32;1.63;;;;;;;22.52;90.38;98100.69;5057873;28;20076;-95